Time;durP1;ratioP1;P1;durP2;ratioP2;P2;SDS_P1;SDS_P2;PMS_P1;PMS_P2;Temp;Humidity;BMP_temperature;BMP_pressure;BME280_temperature;BME280_humidity;BME280_pressure;Samples;Min_cycle;Max_cycle;Signal;HPM_P1;HPM_P2
2023/02/20 00:02:22;;;;;;;1999.90;999.90;;;;;;;2.97;100.00;98724.06;5101155;28;20117;-86
2023/02/20 00:04:47;;;;;;;1999.90;999.90;;;;;;;2.98;100.00;98722.16;5102026;28;20400;-81
2023/02/20 00:07:13;;;;;;;1999.90;999.90;;;;;;;3.05;100.00;98726.44;5105628;28;20112;-81
2023/02/20 00:09:38;;;;;;;1999.90;999.90;;;;;;;3.01;100.00;98722.53;5106833;28;20024;-85
2023/02/20 00:12:03;;;;;;;1999.90;999.90;;;;;;;2.83;100.00;98724.44;5109730;28;20022;-85
2023/02/20 00:14:29;;;;;;;1999.90;999.90;;;;;;;2.88;100.00;98722.69;5110227;28;20035;-83
2023/02/20 00:16:55;;;;;;;1999.90;999.90;;;;;;;2.92;100.00;98723.06;5106236;28;20040;-82
2023/02/20 00:19:20;;;;;;;1999.90;999.90;;;;;;;2.84;100.00;98715.28;5105402;28;20024;-80
2023/02/20 00:21:50;;;;;;;1999.90;999.90;;;;;;;2.95;100.00;98738.81;5109701;28;20031;-81
2023/02/20 00:24:16;;;;;;;1999.90;999.90;;;;;;;2.87;100.00;98744.56;5111083;28;20036;-82
2023/02/20 00:26:47;;;;;;;1999.90;999.90;;;;;;;2.97;100.00;98742.97;5130550;28;20032;-77
2023/02/20 00:29:21;;;;;;;1999.90;999.90;;;;;;;2.87;100.00;98758.88;5113061;28;20138;-81
2023/02/20 00:31:52;;;;;;;1999.90;999.90;;;;;;;2.86;100.00;98757.22;5113296;28;20031;-82
2023/02/20 00:34:17;;;;;;;1999.90;999.90;;;;;;;2.89;100.00;98769.44;5113416;28;20020;-77
2023/02/20 00:36:43;;;;;;;1999.90;999.90;;;;;;;2.77;100.00;98764.00;5112179;28;20020;-76
2023/02/20 00:39:09;;;;;;;1999.90;999.90;;;;;;;2.78;100.00;98773.75;5112697;28;20106;-77
2023/02/20 00:41:34;;;;;;;1999.90;999.90;;;;;;;2.74;100.00;98769.84;5110899;28;20173;-79
2023/02/20 00:43:59;;;;;;;1999.90;999.90;;;;;;;2.76;100.00;98791.25;5097379;28;20024;-79
2023/02/20 00:46:25;;;;;;;1999.90;999.90;;;;;;;2.79;100.00;98788.88;5071179;28;20052;-76
2023/02/20 00:48:50;;;;;;;1999.90;999.90;;;;;;;2.68;100.00;98784.25;5071290;28;20039;-76
2023/02/20 00:51:16;;;;;;;1999.90;999.90;;;;;;;2.68;100.00;98789.66;5071213;28;20044;-78
2023/02/20 00:53:41;;;;;;;1999.90;999.90;;;;;;;2.57;100.00;98790.38;5071240;28;20036;-77
2023/02/20 00:56:07;;;;;;;1999.90;999.90;;;;;;;2.55;100.00;98792.47;5070997;28;20422;-76
2023/02/20 00:58:32;;;;;;;1999.90;999.90;;;;;;;2.58;100.00;98800.13;5071141;28;20033;-76
2023/02/20 01:00:58;;;;;;;1999.90;999.90;;;;;;;2.53;100.00;98792.72;5070889;28;20063;-78
2023/02/20 01:03:23;;;;;;;1999.90;999.90;;;;;;;2.44;100.00;98787.81;5071176;28;20381;-78
2023/02/20 01:05:48;;;;;;;1999.90;999.90;;;;;;;2.43;100.00;98796.97;5071961;28;20021;-78
2023/02/20 01:08:14;;;;;;;1999.90;999.90;;;;;;;2.31;100.00;98802.28;5070332;28;20041;-80
2023/02/20 01:10:39;;;;;;;1999.90;999.90;;;;;;;2.36;100.00;98794.31;5071519;28;20115;-75
2023/02/20 01:13:04;;;;;;;1999.90;999.90;;;;;;;2.50;100.00;98795.88;5071382;28;20035;-81
2023/02/20 01:15:30;;;;;;;1999.90;999.90;;;;;;;2.50;100.00;98789.63;5071998;28;20028;-82
2023/02/20 01:17:55;;;;;;;1999.90;999.90;;;;;;;2.50;100.00;98790.47;5076334;28;20129;-82
2023/02/20 01:20:21;;;;;;;1999.90;999.90;;;;;;;2.39;100.00;98779.56;5081144;28;20031;-84
2023/02/20 01:22:46;;;;;;;1999.90;999.90;;;;;;;2.35;100.00;98770.28;5076682;28;20032;-80
2023/02/20 01:25:11;;;;;;;1999.90;999.90;;;;;;;2.40;100.00;98775.81;5072938;28;20024;-81
2023/02/20 01:27:37;;;;;;;1999.90;999.90;;;;;;;2.36;100.00;98782.69;5073514;28;20020;-82
2023/02/20 01:30:02;;;;;;;1999.90;999.90;;;;;;;2.26;100.00;98782.38;5073422;28;20055;-83
2023/02/20 01:32:28;;;;;;;1999.90;999.90;;;;;;;2.10;100.00;98768.41;5073666;28;20024;-82
2023/02/20 01:34:53;;;;;;;1999.90;999.90;;;;;;;2.25;100.00;98776.19;5076484;28;20044;-80
2023/02/20 01:37:19;;;;;;;1999.90;999.90;;;;;;;2.37;100.00;98779.78;5080313;28;20507;-84
2023/02/20 01:39:47;;;;;;;1999.90;999.90;;;;;;;2.32;100.00;98781.50;5085946;28;20032;-76
2023/02/20 01:42:17;;;;;;;1999.90;999.90;;;;;;;2.23;100.00;98774.72;5089289;28;20476;-77
2023/02/20 01:44:43;;;;;;;1999.90;999.90;;;;;;;2.32;100.00;98779.63;5092011;28;20492;-75
2023/02/20 01:47:14;;;;;;;1999.90;999.90;;;;;;;2.28;100.00;98780.28;5090370;28;20020;-75
2023/02/20 01:49:43;;;;;;;1999.90;999.90;;;;;;;2.21;100.00;98787.63;5087928;28;20052;-75
2023/02/20 01:52:24;;;;;;;1999.90;999.90;;;;;;;2.17;100.00;98779.97;5090107;28;20027;-75
2023/02/20 01:54:56;;;;;;;1999.90;999.90;;;;;;;2.13;100.00;98767.94;5089198;28;20032;-75
2023/02/20 01:57:24;;;;;;;1999.90;999.90;;;;;;;2.17;100.00;98785.38;5090723;28;20045;-76
2023/02/20 01:59:55;;;;;;;1999.90;999.90;;;;;;;2.17;100.00;98769.16;5107945;28;20052;-78
2023/02/20 02:02:22;;;;;;;1999.90;999.90;;;;;;;2.18;100.00;98780.78;5110868;28;20027;-79
2023/02/20 02:04:48;;;;;;;1999.90;999.90;;;;;;;2.12;100.00;98771.72;5110796;28;20024;-77
2023/02/20 02:07:14;;;;;;;1999.90;999.90;;;;;;;2.02;100.00;98760.59;5091888;28;20044;-74
2023/02/20 02:09:58;;;;;;;1999.90;999.90;;;;;;;2.10;100.00;98784.59;5090814;28;20032;-74
2023/02/20 02:12:24;;;;;;;1999.90;999.90;;;;;;;2.16;100.00;98782.91;5091985;28;20067;-77
2023/02/20 02:14:49;;;;;;;1999.90;999.90;;;;;;;1.95;100.00;98788.66;5090711;28;20048;-74
2023/02/20 02:17:30;;;;;;;1999.90;999.90;;;;;;;1.94;100.00;98785.13;5090305;28;20051;-75
2023/02/20 02:20:30;;;;;;;1999.90;999.90;;;;;;;1.99;100.00;98788.00;5093296;28;20035;-75
2023/02/20 02:23:15;;;;;;;1999.90;999.90;;;;;;;1.91;100.00;98793.66;5094076;28;20021;-75
2023/02/20 02:25:56;;;;;;;1999.90;999.90;;;;;;;2.04;100.00;98785.47;5094163;28;20024;-76
2023/02/20 02:28:27;;;;;;;1999.90;999.90;;;;;;;1.90;100.00;98785.81;5094116;28;20400;-75
2023/02/20 02:31:34;;;;;;;1999.90;999.90;;;;;;;1.92;100.00;98786.41;5093805;28;20043;-74
2023/02/20 02:34:38;;;;;;;1999.90;999.90;;;;;;;1.85;100.00;98797.25;5082885;28;20511;-74
2023/02/20 02:37:17;;;;;;;1999.90;999.90;;;;;;;1.78;100.00;98807.25;5062492;28;20067;-75
2023/02/20 02:39:45;;;;;;;1999.90;999.90;;;;;;;1.81;100.00;98801.44;5093995;28;20032;-75
2023/02/20 02:42:20;;;;;;;1999.90;999.90;;;;;;;1.83;100.00;98793.94;5094307;28;20078;-75
2023/02/20 02:44:55;;;;;;;1999.90;999.90;;;;;;;1.75;100.00;98796.91;5093658;28;20016;-75
2023/02/20 02:47:45;;;;;;;1999.90;999.90;;;;;;;1.74;100.00;98789.03;5093603;28;20047;-74
2023/02/20 02:50:25;;;;;;;1999.90;999.90;;;;;;;1.66;100.00;98778.53;5093615;28;20532;-75
2023/02/20 02:52:52;;;;;;;1999.90;999.90;;;;;;;1.72;100.00;98785.75;5093465;28;20098;-76
2023/02/20 02:55:21;;;;;;;1999.90;999.90;;;;;;;1.68;100.00;98789.91;5093600;28;20497;-74
2023/02/20 02:57:47;;;;;;;1999.90;999.90;;;;;;;1.66;100.00;98765.03;5093441;28;20040;-78
2023/02/20 03:00:17;;;;;;;1999.90;999.90;;;;;;;1.64;100.00;98781.44;5094665;28;20480;-75
2023/02/20 03:02:56;;;;;;;1999.90;999.90;;;;;;;1.59;100.00;98786.66;5095094;28;20035;-75
2023/02/20 03:05:38;;;;;;;1999.90;999.90;;;;;;;1.59;100.00;98782.09;5094758;28;20085;-74
2023/02/20 03:08:13;;;;;;;1999.90;999.90;;;;;;;1.65;100.00;98780.38;5093449;28;20194;-73
2023/02/20 03:10:42;;;;;;;1999.90;999.90;;;;;;;1.63;100.00;98788.69;5095111;28;20484;-74
2023/02/20 03:13:11;;;;;;;1999.90;999.90;;;;;;;1.52;100.00;98778.59;5091694;28;20028;-73
2023/02/20 03:15:49;;;;;;;1999.90;999.90;;;;;;;1.58;100.00;98774.22;5091797;28;20020;-77
2023/02/20 03:18:38;;;;;;;1999.90;999.90;;;;;;;1.57;100.00;98784.16;5093206;28;20583;-77
2023/02/20 03:21:16;;;;;;;1999.90;999.90;;;;;;;1.57;100.00;98784.16;5093103;28;20032;-75
2023/02/20 03:23:46;;;;;;;1999.90;999.90;;;;;;;1.61;100.00;98779.16;5093202;28;20081;-73
2023/02/20 03:26:21;;;;;;;1999.90;999.90;;;;;;;1.54;100.00;98789.16;5093363;28;20028;-73
2023/02/20 03:29:00;;;;;;;1999.90;999.90;;;;;;;1.58;100.00;98806.56;5097012;28;20032;-76
2023/02/20 03:31:36;;;;;;;1999.90;999.90;;;;;;;1.61;100.00;98806.13;5095614;28;20156;-74
2023/02/20 03:45:36;;;;;;;1999.90;999.90;;;;;;;1.31;100.00;98805.06;5092837;28;20058;-74
2023/02/20 03:48:07;;;;;;;1999.90;999.90;;;;;;;1.32;100.00;98812.09;5092629;28;20107;-74
2023/02/20 03:53:17;;;;;;;1999.90;999.90;;;;;;;1.33;100.00;98814.56;5092606;28;20035;-74
2023/02/20 03:55:45;;;;;;;1999.90;999.90;;;;;;;1.33;100.00;98816.44;5092340;28;20024;-75
2023/02/20 03:58:15;;;;;;;1999.90;999.90;;;;;;;1.22;100.00;98825.22;5092204;28;20024;-75
2023/02/20 04:00:46;;;;;;;1999.90;999.90;;;;;;;1.03;100.00;98819.66;5092246;28;20016;-76
2023/02/20 04:03:18;;;;;;;1999.90;999.90;;;;;;;1.00;100.00;98830.88;5094284;28;20064;-77
2023/02/20 04:05:46;;;;;;;1999.90;999.90;;;;;;;0.94;100.00;98820.16;5092284;28;20020;-75
2023/02/20 04:08:21;;;;;;;1999.90;999.90;;;;;;;1.02;100.00;98831.50;5092111;28;20082;-74
2023/02/20 04:10:52;;;;;;;1999.90;999.90;;;;;;;0.94;100.00;98842.50;5092216;28;20028;-76
2023/02/20 04:13:19;;;;;;;1999.90;999.90;;;;;;;0.92;100.00;98828.41;5092202;28;20039;-75
2023/02/20 04:15:45;;;;;;;1999.90;999.90;;;;;;;0.84;100.00;98815.22;5092072;28;20012;-77
2023/02/20 04:18:14;;;;;;;1999.90;999.90;;;;;;;1.07;100.00;98834.38;5090548;28;20063;-75
2023/02/20 04:20:39;;;;;;;1999.90;999.90;;;;;;;1.07;100.00;98831.69;5091776;28;20080;-76
2023/02/20 04:23:12;;;;;;;1999.90;999.90;;;;;;;0.94;100.00;98837.09;5090385;28;20028;-75
2023/02/20 04:26:00;;;;;;;1999.90;999.90;;;;;;;0.91;100.00;98842.91;5082155;28;20028;-75
2023/02/20 04:28:25;;;;;;;1999.90;999.90;;;;;;;0.91;100.00;98825.94;5071087;28;20029;-74
2023/02/20 04:30:51;;;;;;;1999.90;999.90;;;;;;;1.03;100.00;98824.25;5085640;28;20035;-74
2023/02/20 04:33:18;;;;;;;1999.90;999.90;;;;;;;1.06;100.00;98832.75;5091596;28;20492;-74
2023/02/20 04:35:44;;;;;;;1999.90;999.90;;;;;;;1.08;100.00;98829.81;5093194;28;20032;-75
2023/02/20 04:38:10;;;;;;;1999.90;999.90;;;;;;;1.02;100.00;98828.81;5091081;28;20034;-74
2023/02/20 04:40:36;;;;;;;1999.90;999.90;;;;;;;0.98;100.00;98832.97;5091124;28;20024;-74
2023/02/20 04:43:01;;;;;;;1999.90;999.90;;;;;;;1.02;100.00;98834.19;5076296;28;20469;-75
2023/02/20 04:45:27;;;;;;;1999.90;999.90;;;;;;;0.96;100.00;98837.75;5070569;28;20039;-74
2023/02/20 04:47:52;;;;;;;1999.90;999.90;;;;;;;1.02;100.00;98826.13;5083758;28;20032;-75
2023/02/20 04:50:30;;;;;;;1999.90;999.90;;;;;;;1.03;100.00;98835.03;5090328;28;20028;-77
2023/02/20 04:52:56;;;;;;;1999.90;999.90;;;;;;;0.98;100.00;98832.13;5091282;28;20480;-74
2023/02/20 04:55:22;;;;;;;1999.90;999.90;;;;;;;1.00;100.00;98841.63;5091066;28;20020;-76
2023/02/20 04:57:48;;;;;;;1999.90;999.90;;;;;;;1.04;100.00;98836.66;5091265;28;20119;-77
2023/02/20 05:00:16;;;;;;;1999.90;999.90;;;;;;;0.95;100.00;98836.06;5090540;28;20043;-75
2023/02/20 05:02:42;;;;;;;1999.90;999.90;;;;;;;1.15;100.00;98843.25;5090764;28;20030;-76
2023/02/20 05:05:35;;;;;;;1999.90;999.90;;;;;;;1.15;100.00;98848.66;5090864;28;20020;-76
2023/02/20 05:08:03;;;;;;;1999.90;999.90;;;;;;;1.20;100.00;98856.91;5088568;28;20431;-75
2023/02/20 05:10:30;;;;;;;1999.90;999.90;;;;;;;1.21;100.00;98858.56;5089158;28;20024;-74
2023/02/20 05:12:57;;;;;;;1999.90;999.90;;;;;;;1.20;100.00;98856.91;5091176;28;20470;-74
2023/02/20 05:15:23;;;;;;;1999.90;999.90;;;;;;;1.32;100.00;98863.28;5090489;28;20020;-75
2023/02/20 05:17:49;;;;;;;1999.90;999.90;;;;;;;1.26;100.00;98858.75;5090631;28;20032;-76
2023/02/20 05:20:16;;;;;;;1999.90;999.90;;;;;;;1.30;100.00;98876.97;5090692;28;20429;-75
2023/02/20 05:22:41;;;;;;;1999.90;999.90;;;;;;;1.29;100.00;98877.19;5090483;28;20035;-76
2023/02/20 05:25:07;;;;;;;1999.90;999.90;;;;;;;1.33;100.00;98875.72;5090807;28;20020;-75
2023/02/20 05:27:33;;;;;;;1999.90;999.90;;;;;;;1.38;100.00;98887.50;5090381;28;20032;-77
2023/02/20 05:29:59;;;;;;;1999.90;999.90;;;;;;;1.37;100.00;98879.66;5090440;28;20032;-75
2023/02/20 05:32:29;;;;;;;1999.90;999.90;;;;;;;1.38;100.00;98884.00;5090163;28;20476;-77
2023/02/20 05:34:55;;;;;;;1999.90;999.90;;;;;;;1.44;100.00;98891.25;5090827;28;20024;-76
2023/02/20 05:37:22;;;;;;;1999.90;999.90;;;;;;;1.52;100.00;98885.59;5091628;28;20394;-76
2023/02/20 05:39:48;;;;;;;1999.90;999.90;;;;;;;1.67;100.00;98896.91;5096907;28;20024;-79
2023/02/20 05:42:14;;;;;;;1999.90;999.90;;;;;;;1.72;100.00;98902.50;5093266;28;20039;-76
2023/02/20 05:44:39;;;;;;;1999.90;999.90;;;;;;;1.84;100.00;98887.28;5090787;28;20028;-76
2023/02/20 05:47:06;;;;;;;1999.90;999.90;;;;;;;1.88;100.00;98899.28;5090668;28;20027;-77
2023/02/20 05:49:33;;;;;;;1999.90;999.90;;;;;;;2.00;100.00;98907.53;5090437;28;20028;-75
2023/02/20 05:51:59;;;;;;;1999.90;999.90;;;;;;;1.98;100.00;98899.66;5090807;28;20496;-75
2023/02/20 05:54:25;;;;;;;1999.90;999.90;;;;;;;2.01;100.00;98891.13;5094814;28;20132;-75
2023/02/20 05:56:51;;;;;;;1999.90;999.90;;;;;;;2.05;100.00;98892.34;5093042;28;20127;-75
2023/02/20 05:59:20;;;;;;;1999.90;999.90;;;;;;;2.12;100.00;98908.50;5094697;28;20032;-77
2023/02/20 06:01:46;;;;;;;1999.90;999.90;;;;;;;1.99;100.00;98905.88;5081324;28;20036;-75
2023/02/20 06:04:12;;;;;;;1999.90;999.90;;;;;;;2.05;100.00;98916.63;5094014;28;20907;-75
2023/02/20 06:06:41;;;;;;;1999.90;999.90;;;;;;;2.08;100.00;98920.75;5093632;28;20030;-75
2023/02/20 06:09:11;;;;;;;1999.90;999.90;;;;;;;2.06;100.00;98912.06;5094008;28;20070;-75
2023/02/20 06:11:38;;;;;;;1999.90;999.90;;;;;;;2.04;100.00;98927.63;5093719;28;20050;-77
2023/02/20 06:14:05;;;;;;;1999.90;999.90;;;;;;;1.98;100.00;98929.31;5094174;28;20028;-76
2023/02/20 06:16:30;;;;;;;1999.90;999.90;;;;;;;1.89;100.00;98925.22;5092490;28;20024;-76
2023/02/20 06:18:56;;;;;;;1999.90;999.90;;;;;;;1.94;100.00;98922.69;5093899;28;20111;-75
2023/02/20 06:21:23;;;;;;;1999.90;999.90;;;;;;;2.09;100.00;98928.66;5092244;28;20496;-74
2023/02/20 06:23:50;;;;;;;1999.90;999.90;;;;;;;2.09;100.00;98917.84;5093333;28;20023;-74
2023/02/20 06:26:16;;;;;;;1999.90;999.90;;;;;;;2.13;100.00;98913.66;5093304;28;20070;-76
2023/02/20 06:28:42;;;;;;;1999.90;999.90;;;;;;;2.15;100.00;98933.16;5096025;28;20024;-76
2023/02/20 06:31:08;;;;;;;1999.90;999.90;;;;;;;2.13;100.00;98935.25;5093198;28;20036;-75
2023/02/20 06:33:34;;;;;;;1999.90;999.90;;;;;;;2.21;100.00;98936.03;5093322;28;20055;-73
2023/02/20 06:36:00;;;;;;;1999.90;999.90;;;;;;;2.27;100.00;98943.25;5093126;28;20019;-74
2023/02/20 06:38:26;;;;;;;1999.90;999.90;;;;;;;2.23;100.00;98945.56;5090845;28;20496;-74
2023/02/20 06:40:51;;;;;;;1999.90;999.90;;;;;;;2.32;100.00;98938.06;5091147;28;20059;-75
2023/02/20 06:43:17;;;;;;;1999.90;999.90;;;;;;;2.31;100.00;98942.63;5092597;28;20105;-75
2023/02/20 06:45:43;;;;;;;1999.90;999.90;;;;;;;2.46;100.00;98956.63;5092638;28;20388;-74
2023/02/20 06:48:08;;;;;;;1999.90;999.90;;;;;;;2.47;100.00;98952.06;5092283;28;20055;-74
2023/02/20 06:50:34;;;;;;;1999.90;999.90;;;;;;;2.49;100.00;98949.97;5091816;28;20549;-75
2023/02/20 06:52:59;;;;;;;1999.90;999.90;;;;;;;2.48;100.00;98954.53;5092147;28;20512;-74
2023/02/20 06:55:25;;;;;;;1999.90;999.90;;;;;;;2.46;100.00;98953.09;5092215;28;20025;-75
2023/02/20 06:57:52;;;;;;;1999.90;999.90;;;;;;;2.42;100.00;98965.38;5092220;28;20370;-75
2023/02/20 07:00:18;;;;;;;1999.90;999.90;;;;;;;2.51;100.00;98947.84;5091345;28;20027;-76
2023/02/20 07:02:43;;;;;;;1999.90;999.90;;;;;;;2.57;100.00;98955.06;5091967;28;20032;-75
2023/02/20 07:05:11;;;;;;;1999.90;999.90;;;;;;;2.70;100.00;98953.09;5089013;28;20035;-76
2023/02/20 07:07:36;;;;;;;1999.90;999.90;;;;;;;2.91;100.00;98953.78;5092636;28;20055;-77
2023/02/20 07:10:04;;;;;;;1999.90;999.90;;;;;;;3.07;100.00;98948.63;5091641;28;20032;-76
2023/02/20 07:12:31;;;;;;;1999.90;999.90;;;;;;;2.95;100.00;98936.06;5090634;28;20111;-76
2023/02/20 07:14:56;;;;;;;1999.90;999.90;;;;;;;3.02;100.00;98956.56;5091372;28;20118;-73
2023/02/20 07:17:22;;;;;;;1999.90;999.90;;;;;;;3.35;100.00;98955.44;5090805;28;20437;-75
2023/02/20 07:19:47;;;;;;;1999.90;999.90;;;;;;;3.23;100.00;98942.63;5090810;28;20506;-74
2023/02/20 07:22:12;;;;;;;1999.90;999.90;;;;;;;3.24;100.00;98949.72;5091419;28;20027;-76
2023/02/20 07:24:40;;;;;;;1999.90;999.90;;;;;;;3.38;100.00;98947.69;5091586;28;20038;-76
2023/02/20 07:27:06;;;;;;;1999.90;999.90;;;;;;;3.40;100.00;98955.56;5092539;28;20039;-76
2023/02/20 07:29:31;;;;;;;1999.90;999.90;;;;;;;3.51;100.00;98946.72;5091199;28;20514;-75
2023/02/20 07:31:57;;;;;;;1999.90;999.90;;;;;;;3.49;100.00;98956.91;5090183;28;20020;-75
2023/02/20 07:34:22;;;;;;;1999.90;999.90;;;;;;;3.29;100.00;98956.31;5091654;28;20044;-76
2023/02/20 07:36:47;;;;;;;1999.90;999.90;;;;;;;3.23;100.00;98939.94;5093452;28;20020;-74
2023/02/20 07:39:13;;;;;;;1999.90;999.90;;;;;;;3.31;100.00;98936.13;5092694;28;20481;-75
2023/02/20 07:41:39;;;;;;;1999.90;999.90;;;;;;;3.33;100.00;98941.28;5092681;28;20028;-76
2023/02/20 07:44:05;;;;;;;1999.90;999.90;;;;;;;3.41;100.00;98943.72;5094067;28;20043;-76
2023/02/20 07:46:32;;;;;;;1999.90;999.90;;;;;;;3.38;100.00;98950.41;5093396;28;20020;-75
2023/02/20 07:49:00;;;;;;;1999.90;999.90;;;;;;;3.38;100.00;98960.38;5100250;28;20032;-83
2023/02/20 07:51:26;;;;;;;1999.90;999.90;;;;;;;3.43;100.00;98958.66;5096241;28;20020;-77
2023/02/20 07:53:53;;;;;;;1999.90;999.90;;;;;;;3.42;100.00;98950.75;5092437;28;20024;-80
2023/02/20 07:56:20;;;;;;;1999.90;999.90;;;;;;;3.58;100.00;98960.97;5092202;28;20024;-80
2023/02/20 07:58:46;;;;;;;1999.90;999.90;;;;;;;3.58;100.00;98951.00;5092167;28;20032;-77
2023/02/20 08:01:12;;;;;;;1999.90;999.90;;;;;;;3.57;100.00;98953.94;5092328;28;20118;-77
2023/02/20 08:03:37;;;;;;;1999.90;999.90;;;;;;;3.57;100.00;98959.34;5090855;28;20042;-78
2023/02/20 08:06:03;;;;;;;1999.90;999.90;;;;;;;3.60;100.00;98948.88;5092511;28;20039;-79
2023/02/20 08:08:28;;;;;;;1999.90;999.90;;;;;;;3.65;100.00;98942.81;5091890;28;20405;-77
2023/02/20 08:10:54;;;;;;;1999.90;999.90;;;;;;;3.66;100.00;98944.47;5092386;28;20032;-78
2023/02/20 08:13:19;;;;;;;1999.90;999.90;;;;;;;3.72;100.00;98947.09;5094952;28;20111;-77
2023/02/20 08:15:46;;;;;;;1999.90;999.90;;;;;;;3.73;100.00;98942.47;5095184;28;20024;-79
2023/02/20 08:18:12;;;;;;;1999.90;999.90;;;;;;;3.76;100.00;98942.03;5092124;28;20031;-75
2023/02/20 08:20:38;;;;;;;1999.90;999.90;;;;;;;3.93;100.00;98948.47;5091795;28;20040;-78
2023/02/20 08:23:04;;;;;;;1999.90;999.90;;;;;;;4.00;100.00;98949.22;5091614;28;20119;-77
2023/02/20 08:25:31;;;;;;;1999.90;999.90;;;;;;;4.05;100.00;98945.81;5091759;28;20401;-75
2023/02/20 08:27:57;;;;;;;1999.90;999.90;;;;;;;3.95;100.00;98956.34;5091510;28;20119;-77
2023/02/20 08:30:26;;;;;;;1999.90;999.90;;;;;;;4.01;100.00;98950.84;5091496;28;20040;-77
2023/02/20 08:32:53;;;;;;;1999.90;999.90;;;;;;;3.99;100.00;98949.44;5091911;28;20028;-76
2023/02/20 08:35:19;;;;;;;1999.90;999.90;;;;;;;4.16;100.00;98951.31;5091571;28;20028;-77
2023/02/20 08:37:45;;;;;;;1999.90;999.90;;;;;;;4.20;100.00;98954.34;5091656;28;20126;-77
2023/02/20 08:40:11;;;;;;;1999.90;999.90;;;;;;;4.20;100.00;98947.06;5091960;28;20532;-76
2023/02/20 08:42:37;;;;;;;1999.90;999.90;;;;;;;4.18;100.00;98935.63;5091836;28;20407;-76
2023/02/20 08:45:04;;;;;;;1999.90;999.90;;;;;;;4.26;100.00;98948.03;5091477;28;20028;-77
2023/02/20 08:47:29;;;;;;;1999.90;999.90;;;;;;;4.39;100.00;98947.00;5090218;28;20024;-76
2023/02/20 08:49:55;;;;;;;1999.90;999.90;;;;;;;4.53;100.00;98953.88;5091380;28;20035;-77
2023/02/20 08:52:20;;;;;;;1999.90;999.90;;;;;;;4.56;100.00;98948.00;5092650;28;20032;-76
2023/02/20 08:54:47;;;;;;;1999.90;999.90;;;;;;;4.54;100.00;98944.69;5091916;28;20476;-80
2023/02/20 08:57:13;;;;;;;1999.90;999.90;;;;;;;4.57;100.00;98952.38;5093163;28;20036;-79
2023/02/20 08:59:39;;;;;;;1999.90;999.90;;;;;;;4.60;100.00;98941.91;5093025;28;20107;-78
2023/02/20 09:02:05;;;;;;;1999.90;999.90;;;;;;;4.80;100.00;98953.22;5091790;28;20162;-76
2023/02/20 09:04:30;;;;;;;1999.90;999.90;;;;;;;4.98;100.00;98954.19;5091281;28;20068;-78
2023/02/20 09:06:56;;;;;;;1999.90;999.90;;;;;;;5.02;100.00;98953.47;5090924;28;20082;-77
2023/02/20 09:09:21;;;;;;;1999.90;999.90;;;;;;;5.15;100.00;98942.41;5091089;28;20024;-77
2023/02/20 09:11:47;;;;;;;1999.90;999.90;;;;;;;5.16;100.00;98946.78;5091656;28;20433;-77
2023/02/20 09:14:12;;;;;;;1999.90;999.90;;;;;;;5.02;100.00;98947.22;5091069;28;20021;-75
2023/02/20 09:16:40;;;;;;;1999.90;999.90;;;;;;;5.09;100.00;98940.63;5091193;28;20590;-77
2023/02/20 09:19:09;;;;;;;1999.90;999.90;;;;;;;5.22;100.00;98936.88;5089683;28;20115;-77
2023/02/20 09:21:35;;;;;;;1999.90;999.90;;;;;;;5.22;100.00;98926.84;5091232;28;20055;-78
2023/02/20 09:24:00;;;;;;;1999.90;999.90;;;;;;;5.25;100.00;98948.06;5091040;28;20028;-77
2023/02/20 09:26:25;;;;;;;1999.90;999.90;;;;;;;5.28;100.00;98936.75;5091011;28;20028;-76
2023/02/20 09:28:51;;;;;;;1999.90;999.90;;;;;;;5.54;100.00;98943.56;5090262;28;20024;-77
2023/02/20 09:31:16;;;;;;;1999.90;999.90;;;;;;;5.85;100.00;98932.31;5090613;28;20039;-77
2023/02/20 09:33:45;;;;;;;1999.90;999.90;;;;;;;6.59;100.00;98921.44;5090771;28;20032;-77
2023/02/20 09:36:11;;;;;;;1999.90;999.90;;;;;;;7.21;100.00;98936.59;5091374;28;20032;-77
2023/02/20 09:38:36;;;;;;;1999.90;999.90;;;;;;;7.37;100.00;98930.31;5090890;28;20023;-79
2023/02/20 09:41:03;;;;;;;1999.90;999.90;;;;;;;7.24;100.00;98925.22;5090708;28;20062;-77
2023/02/20 09:43:34;;;;;;;1999.90;999.90;;;;;;;7.03;100.00;98928.69;5089559;28;20028;-76
2023/02/20 09:46:11;;;;;;;1999.90;999.90;;;;;;;6.92;100.00;98926.91;5091436;28;20030;-78
2023/02/20 09:48:40;;;;;;;1999.90;999.90;;;;;;;6.86;100.00;98912.38;5089734;28;20039;-77
2023/02/20 09:51:13;;;;;;;1999.90;999.90;;;;;;;6.96;100.00;98907.13;5089605;28;20388;-75
2023/02/20 09:53:54;;;;;;;1999.90;999.90;;;;;;;7.13;100.00;98918.00;5090643;28;20024;-81
2023/02/20 09:56:25;;;;;;;1999.90;999.90;;;;;;;7.26;100.00;98914.09;5090769;28;20024;-76
2023/02/20 09:59:15;;;;;;;1999.90;999.90;;;;;;;7.91;100.00;98914.13;5091145;28;20065;-79
2023/02/20 10:01:57;;;;;;;1999.90;999.90;;;;;;;7.97;100.00;98919.38;5093376;28;20088;-81
2023/02/20 10:04:29;;;;;;;1999.90;999.90;;;;;;;8.64;100.00;98907.28;5095154;28;20038;-76
2023/02/20 10:07:03;;;;;;;1999.90;999.90;;;;;;;8.53;100.00;98918.09;5090360;28;20040;-76
2023/02/20 10:09:28;;;;;;;1999.90;999.90;;;;;;;9.05;100.00;98920.19;5090448;28;20030;-77
2023/02/20 10:12:04;;;;;;;1999.90;999.90;;;;;;;10.14;100.00;98923.00;5091077;28;20024;-78
2023/02/20 10:14:43;;;;;;;;;;;;;;;11.48;100.00;98911.56;5091086;28;20069;-78
2023/02/20 10:17:40;;;;;;;1999.90;999.90;;;;;;;12.70;96.91;98912.66;5090825;28;19977;-80
2023/02/20 10:20:28;;;;;;;1999.90;999.90;;;;;;;14.35;87.26;98916.75;5090784;28;20412;-80
2023/02/20 10:23:12;;;;;;;1999.90;999.90;;;;;;;13.81;86.08;98927.34;5068695;28;20032;-80
2023/02/20 10:25:46;;;;;;;1999.90;999.90;;;;;;;14.53;83.20;98915.16;5090478;28;20028;-78
2023/02/20 10:28:17;;;;;;;1999.90;999.90;;;;;;;14.34;78.17;98917.91;5090655;28;20119;-81
2023/02/20 10:31:20;;;;;;;1999.90;999.90;;;;;;;14.78;75.76;98923.03;5090922;28;20027;-79
2023/02/20 10:33:58;;;;;;;1999.90;999.90;;;;;;;14.38;76.46;98912.59;5091016;28;20396;-82
2023/02/20 10:36:33;;;;;;;1999.90;999.90;;;;;;;13.29;80.05;98914.38;5090213;28;20040;-80
2023/02/20 10:39:14;;;;;;;1999.90;999.90;;;;;;;15.24;69.08;98905.75;5090897;28;20035;-81
2023/02/20 10:42:01;;;;;;;1999.90;999.90;;;;;;;14.37;72.64;98900.78;5094691;28;20028;-80
2023/02/20 10:44:32;;;;;;;1999.90;999.90;;;;;;;13.92;75.27;98902.16;5093132;28;20454;-80
2023/02/20 10:47:05;;;;;;;1999.90;999.90;;;;;;;13.72;76.82;98880.38;5094537;28;20024;-82
2023/02/20 10:49:40;;;;;;;1999.90;999.90;;;;;;;13.81;75.64;98886.88;5093863;28;20032;-82
2023/02/20 10:52:11;;;;;;;1999.90;999.90;;;;;;;14.60;71.57;98877.03;5094405;28;20024;-83
2023/02/20 10:54:43;;;;;;;1999.90;999.90;;;;;;;15.70;66.60;98878.97;5094609;28;20590;-82
2023/02/20 10:57:38;;;;;;;1999.90;999.90;;;;;;;15.16;66.41;98870.63;5094663;28;20024;-81
2023/02/20 11:00:31;;;;;;;1999.90;999.90;;;;;;;16.38;63.41;98865.09;5077844;28;20032;-85
2023/02/20 11:03:04;;;;;;;1999.90;999.90;;;;;;;15.98;63.98;98860.47;5090190;28;20028;-82
2023/02/20 11:05:34;;;;;;;1999.90;999.90;;;;;;;15.14;69.18;98851.63;5094074;28;20032;-83
2023/02/20 11:07:59;;;;;;;1999.90;999.90;;;;;;;13.04;78.15;98840.41;5092668;28;20052;-80
2023/02/20 11:10:25;;;;;;;1999.90;999.90;;;;;;;14.68;72.00;98826.78;5094232;28;20041;-82
2023/02/20 11:12:56;;;;;;;1999.90;999.90;;;;;;;13.12;76.80;98815.13;5094049;28;20039;-78
2023/02/20 11:15:24;;;;;;;1999.90;999.90;;;;;;;13.33;78.57;98805.53;5093992;28;20094;-80
2023/02/20 11:17:55;;;;;;;1999.90;999.90;;;;;;;14.51;73.49;98790.72;5093653;28;20056;-81
2023/02/20 11:20:40;;;;;;;1999.90;999.90;;;;;;;14.28;72.12;98788.88;5094030;28;20055;-82